Cutten, California
Current Conditions -  °F | °C
As of 9:53 PM on Saturday 22 Nov 2014 (Local Time) from KACV Reporting Station
Clear Clear  
Wind Chill: 46°   Ceiling: Unl
Heat Index: 46°   Visibility: 10mi
Dew Point: 44°   Wind: 3mph
Humidity: 93%   Direction: 90°E
Pressure: 30.31"   Gusts: NA
Location:  40.77°N, 124.14°W
Report Text: KACV 230553Z AUTO 09003KT 10SM CLR 08/07 A3031 RMK AO2 SLP269 T00780067 10122 20078 51015
Loading
Personal Weather Stations






























Interactive Weather Map New forecast layout! Learn more

10-Day Weather Forecast

Advertisements
Track Severe Weather on mobile